sensor_id;sensor_type;location;lat;lon;timestamp;P1;durP1;ratioP1;P2;durP2;ratioP2
13457;SDS011;6801;53.018;11.560;2023-09-19T00:00:20;1.40;;;0.70;;
13457;SDS011;6801;53.018;11.560;2023-09-19T00:02:53;3.42;;;0.85;;
13457;SDS011;6801;53.018;11.560;2023-09-19T00:05:22;2.88;;;1.00;;
13457;SDS011;6801;53.018;11.560;2023-09-19T00:10:20;2.03;;;0.68;;
13457;SDS011;6801;53.018;11.560;2023-09-19T00:12:49;2.03;;;0.82;;
13457;SDS011;6801;53.018;11.560;2023-09-19T00:15:20;1.27;;;0.65;;
13457;SDS011;6801;53.018;11.560;2023-09-19T00:17:47;3.72;;;0.60;;
13457;SDS011;6801;53.018;11.560;2023-09-19T00:20:18;2.13;;;0.60;;
13457;SDS011;6801;53.018;11.560;2023-09-19T00:22:46;1.67;;;0.57;;
13457;SDS011;6801;53.018;11.560;2023-09-19T00:25:14;1.13;;;0.57;;
13457;SDS011;6801;53.018;11.560;2023-09-19T00:27:42;1.23;;;0.63;;
13457;SDS011;6801;53.018;11.560;2023-09-19T00:30:12;1.48;;;0.80;;
13457;SDS011;6801;53.018;11.560;2023-09-19T00:32:42;2.45;;;0.60;;
13457;SDS011;6801;53.018;11.560;2023-09-19T00:35:09;1.08;;;0.60;;
13457;SDS011;6801;53.018;11.560;2023-09-19T00:37:37;2.35;;;0.75;;
13457;SDS011;6801;53.018;11.560;2023-09-19T00:40:05;2.28;;;0.75;;
13457;SDS011;6801;53.018;11.560;2023-09-19T00:42:37;0.75;;;0.43;;
13457;SDS011;6801;53.018;11.560;2023-09-19T00:45:05;1.60;;;0.77;;
13457;SDS011;6801;53.018;11.560;2023-09-19T00:47:36;1.42;;;0.40;;
13457;SDS011;6801;53.018;11.560;2023-09-19T00:50:03;1.50;;;0.60;;
13457;SDS011;6801;53.018;11.560;2023-09-19T00:52:33;2.35;;;0.50;;
13457;SDS011;6801;53.018;11.560;2023-09-19T00:55:02;1.02;;;0.43;;
13457;SDS011;6801;53.018;11.560;2023-09-19T00:57:32;1.63;;;0.80;;
13457;SDS011;6801;53.018;11.560;2023-09-19T00:59:59;1.30;;;0.50;;
13457;SDS011;6801;53.018;11.560;2023-09-19T01:13:56;0.90;;;0.60;;
13457;SDS011;6801;53.018;11.560;2023-09-19T01:16:31;1.38;;;0.50;;
13457;SDS011;6801;53.018;11.560;2023-09-19T01:19:07;1.75;;;0.57;;
13457;SDS011;6801;53.018;11.560;2023-09-19T01:21:53;2.03;;;0.55;;
13457;SDS011;6801;53.018;11.560;2023-09-19T01:27:34;2.45;;;0.60;;
13457;SDS011;6801;53.018;11.560;2023-09-19T01:30:28;2.22;;;0.65;;
13457;SDS011;6801;53.018;11.560;2023-09-19T01:33:02;3.13;;;0.68;;
13457;SDS011;6801;53.018;11.560;2023-09-19T01:35:31;1.43;;;0.50;;
13457;SDS011;6801;53.018;11.560;2023-09-19T01:37:59;2.33;;;0.73;;
13457;SDS011;6801;53.018;11.560;2023-09-19T01:40:26;0.95;;;0.57;;
13457;SDS011;6801;53.018;11.560;2023-09-19T01:42:54;2.35;;;0.60;;
13457;SDS011;6801;53.018;11.560;2023-09-19T01:45:31;1.65;;;0.50;;
13457;SDS011;6801;53.018;11.560;2023-09-19T01:48:09;1.00;;;0.50;;
13457;SDS011;6801;53.018;11.560;2023-09-19T01:50:49;3.70;;;0.70;;
13457;SDS011;6801;53.018;11.560;2023-09-19T01:53:23;2.22;;;0.60;;
13457;SDS011;6801;53.018;11.560;2023-09-19T01:55:53;1.48;;;0.52;;
13457;SDS011;6801;53.018;11.560;2023-09-19T01:58:21;3.30;;;0.80;;
13457;SDS011;6801;53.018;11.560;2023-09-19T02:01:00;1.52;;;0.77;;
13457;SDS011;6801;53.018;11.560;2023-09-19T02:03:29;2.40;;;0.65;;
13457;SDS011;6801;53.018;11.560;2023-09-19T02:05:58;1.30;;;0.77;;
13457;SDS011;6801;53.018;11.560;2023-09-19T02:08:25;2.00;;;0.70;;
13457;SDS011;6801;53.018;11.560;2023-09-19T02:10:52;2.17;;;0.65;;
13457;SDS011;6801;53.018;11.560;2023-09-19T02:13:20;1.48;;;1.02;;
13457;SDS011;6801;53.018;11.560;2023-09-19T02:18:18;2.45;;;0.70;;
13457;SDS011;6801;53.018;11.560;2023-09-19T02:20:45;1.80;;;0.45;;
13457;SDS011;6801;53.018;11.560;2023-09-19T02:23:13;1.17;;;0.60;;
13457;SDS011;6801;53.018;11.560;2023-09-19T02:25:40;2.13;;;0.55;;
13457;SDS011;6801;53.018;11.560;2023-09-19T02:28:08;3.50;;;0.60;;
13457;SDS011;6801;53.018;11.560;2023-09-19T02:30:35;1.27;;;0.60;;
13457;SDS011;6801;53.018;11.560;2023-09-19T02:33:02;3.42;;;0.65;;
13457;SDS011;6801;53.018;11.560;2023-09-19T02:35:31;2.30;;;1.00;;
13457;SDS011;6801;53.018;11.560;2023-09-19T02:38:01;1.25;;;0.65;;
13457;SDS011;6801;53.018;11.560;2023-09-19T02:40:31;2.85;;;1.00;;
13457;SDS011;6801;53.018;11.560;2023-09-19T02:43:01;2.28;;;0.70;;
13457;SDS011;6801;53.018;11.560;2023-09-19T02:45:28;1.27;;;0.50;;
13457;SDS011;6801;53.018;11.560;2023-09-19T02:47:56;1.35;;;0.60;;
13457;SDS011;6801;53.018;11.560;2023-09-19T02:50:23;2.63;;;0.50;;
13457;SDS011;6801;53.018;11.560;2023-09-19T02:52:51;2.05;;;0.73;;
13457;SDS011;6801;53.018;11.560;2023-09-19T02:55:20;1.60;;;0.70;;
13457;SDS011;6801;53.018;11.560;2023-09-19T02:57:47;3.35;;;0.88;;
13457;SDS011;6801;53.018;11.560;2023-09-19T03:00:16;2.53;;;0.95;;
13457;SDS011;6801;53.018;11.560;2023-09-19T03:02:47;2.25;;;0.80;;
13457;SDS011;6801;53.018;11.560;2023-09-19T03:05:14;2.72;;;0.88;;
13457;SDS011;6801;53.018;11.560;2023-09-19T03:07:41;2.47;;;1.02;;
13457;SDS011;6801;53.018;11.560;2023-09-19T03:10:12;1.52;;;0.90;;
13457;SDS011;6801;53.018;11.560;2023-09-19T03:12:41;3.17;;;1.15;;
13457;SDS011;6801;53.018;11.560;2023-09-19T03:15:08;2.38;;;1.00;;
13457;SDS011;6801;53.018;11.560;2023-09-19T03:17:35;2.90;;;1.00;;
13457;SDS011;6801;53.018;11.560;2023-09-19T03:20:03;1.85;;;0.75;;
13457;SDS011;6801;53.018;11.560;2023-09-19T03:22:33;3.40;;;1.00;;
13457;SDS011;6801;53.018;11.560;2023-09-19T03:25:01;2.38;;;0.80;;
13457;SDS011;6801;53.018;11.560;2023-09-19T03:27:30;2.45;;;1.23;;
13457;SDS011;6801;53.018;11.560;2023-09-19T03:29:57;1.98;;;0.95;;
13457;SDS011;6801;53.018;11.560;2023-09-19T03:32:24;1.58;;;0.90;;
13457;SDS011;6801;53.018;11.560;2023-09-19T03:34:51;3.38;;;1.25;;
13457;SDS011;6801;53.018;11.560;2023-09-19T03:37:19;2.78;;;0.82;;
13457;SDS011;6801;53.018;11.560;2023-09-19T03:39:46;2.85;;;0.77;;
13457;SDS011;6801;53.018;11.560;2023-09-19T03:42:13;6.10;;;0.90;;
13457;SDS011;6801;53.018;11.560;2023-09-19T03:44:41;1.40;;;0.90;;
13457;SDS011;6801;53.018;11.560;2023-09-19T03:47:08;4.68;;;1.10;;
13457;SDS011;6801;53.018;11.560;2023-09-19T03:49:35;3.95;;;1.45;;
13457;SDS011;6801;53.018;11.560;2023-09-19T03:52:03;2.33;;;1.05;;
13457;SDS011;6801;53.018;11.560;2023-09-19T03:54:31;3.35;;;1.20;;
13457;SDS011;6801;53.018;11.560;2023-09-19T03:56:58;4.88;;;1.08;;
13457;SDS011;6801;53.018;11.560;2023-09-19T03:59:25;7.43;;;1.70;;
13457;SDS011;6801;53.018;11.560;2023-09-19T04:01:55;7.85;;;1.60;;
13457;SDS011;6801;53.018;11.560;2023-09-19T04:04:23;6.03;;;1.35;;
13457;SDS011;6801;53.018;11.560;2023-09-19T04:06:50;4.57;;;1.30;;
13457;SDS011;6801;53.018;11.560;2023-09-19T04:09:17;3.72;;;1.20;;
13457;SDS011;6801;53.018;11.560;2023-09-19T04:11:45;5.80;;;1.45;;
13457;SDS011;6801;53.018;11.560;2023-09-19T04:14:11;6.45;;;1.30;;
13457;SDS011;6801;53.018;11.560;2023-09-19T04:16:38;4.03;;;1.08;;
13457;SDS011;6801;53.018;11.560;2023-09-19T04:19:07;3.53;;;1.20;;
13457;SDS011;6801;53.018;11.560;2023-09-19T04:21:34;3.78;;;1.25;;
13457;SDS011;6801;53.018;11.560;2023-09-19T04:24:01;4.28;;;1.40;;
13457;SDS011;6801;53.018;11.560;2023-09-19T04:26:28;6.57;;;1.90;;
13457;SDS011;6801;53.018;11.560;2023-09-19T04:28:55;3.85;;;1.55;;
13457;SDS011;6801;53.018;11.560;2023-09-19T04:31:22;6.63;;;1.98;;
13457;SDS011;6801;53.018;11.560;2023-09-19T04:33:49;4.95;;;1.48;;
13457;SDS011;6801;53.018;11.560;2023-09-19T04:36:18;6.38;;;1.50;;
13457;SDS011;6801;53.018;11.560;2023-09-19T04:38:46;1.85;;;0.80;;
13457;SDS011;6801;53.018;11.560;2023-09-19T04:41:13;4.03;;;1.40;;
13457;SDS011;6801;53.018;11.560;2023-09-19T04:43:43;5.80;;;2.42;;
13457;SDS011;6801;53.018;11.560;2023-09-19T04:46:10;6.82;;;1.63;;
13457;SDS011;6801;53.018;11.560;2023-09-19T04:48:39;3.45;;;1.83;;
13457;SDS011;6801;53.018;11.560;2023-09-19T04:51:06;4.05;;;1.58;;
13457;SDS011;6801;53.018;11.560;2023-09-19T04:53:35;3.83;;;1.65;;
13457;SDS011;6801;53.018;11.560;2023-09-19T04:56:02;7.80;;;1.50;;
13457;SDS011;6801;53.018;11.560;2023-09-19T04:58:31;5.25;;;1.73;;
13457;SDS011;6801;53.018;11.560;2023-09-19T05:00:59;3.70;;;1.80;;
13457;SDS011;6801;53.018;11.560;2023-09-19T05:03:28;5.10;;;1.77;;
13457;SDS011;6801;53.018;11.560;2023-09-19T05:05:55;7.32;;;1.77;;
13457;SDS011;6801;53.018;11.560;2023-09-19T05:08:22;7.40;;;1.92;;
13457;SDS011;6801;53.018;11.560;2023-09-19T05:10:50;6.75;;;2.03;;
13457;SDS011;6801;53.018;11.560;2023-09-19T05:13:17;9.60;;;2.05;;
13457;SDS011;6801;53.018;11.560;2023-09-19T05:15:44;3.85;;;1.65;;
13457;SDS011;6801;53.018;11.560;2023-09-19T05:18:11;6.90;;;1.58;;
13457;SDS011;6801;53.018;11.560;2023-09-19T05:20:38;8.57;;;2.10;;
13457;SDS011;6801;53.018;11.560;2023-09-19T05:23:05;6.53;;;2.17;;
13457;SDS011;6801;53.018;11.560;2023-09-19T05:25:37;5.75;;;1.67;;
13457;SDS011;6801;53.018;11.560;2023-09-19T05:28:07;5.75;;;1.80;;
13457;SDS011;6801;53.018;11.560;2023-09-19T05:30:37;5.78;;;2.00;;
13457;SDS011;6801;53.018;11.560;2023-09-19T05:33:05;3.95;;;1.85;;
13457;SDS011;6801;53.018;11.560;2023-09-19T05:35:33;4.10;;;1.52;;
13457;SDS011;6801;53.018;11.560;2023-09-19T05:38:02;7.05;;;2.53;;
13457;SDS011;6801;53.018;11.560;2023-09-19T05:40:30;4.93;;;2.13;;
13457;SDS011;6801;53.018;11.560;2023-09-19T05:42:57;4.25;;;1.95;;
13457;SDS011;6801;53.018;11.560;2023-09-19T05:45:26;6.28;;;2.00;;
13457;SDS011;6801;53.018;11.560;2023-09-19T05:47:53;4.55;;;1.73;;
13457;SDS011;6801;53.018;11.560;2023-09-19T05:50:21;7.28;;;1.73;;
13457;SDS011;6801;53.018;11.560;2023-09-19T05:52:52;5.85;;;1.83;;
13457;SDS011;6801;53.018;11.560;2023-09-19T05:55:21;4.35;;;1.48;;
13457;SDS011;6801;53.018;11.560;2023-09-19T05:57:50;4.93;;;1.90;;
13457;SDS011;6801;53.018;11.560;2023-09-19T06:00:17;6.93;;;2.03;;
13457;SDS011;6801;53.018;11.560;2023-09-19T06:02:50;5.85;;;1.80;;
13457;SDS011;6801;53.018;11.560;2023-09-19T06:05:18;6.15;;;1.83;;
13457;SDS011;6801;53.018;11.560;2023-09-19T06:07:45;5.85;;;1.58;;
13457;SDS011;6801;53.018;11.560;2023-09-19T06:10:12;5.53;;;2.15;;
13457;SDS011;6801;53.018;11.560;2023-09-19T06:12:40;5.85;;;1.77;;
13457;SDS011;6801;53.018;11.560;2023-09-19T06:15:09;7.70;;;2.08;;
13457;SDS011;6801;53.018;11.560;2023-09-19T06:17:40;7.97;;;1.50;;
13457;SDS011;6801;53.018;11.560;2023-09-19T06:20:09;3.85;;;1.30;;
13457;SDS011;6801;53.018;11.560;2023-09-19T06:22:40;4.50;;;1.48;;
13457;SDS011;6801;53.018;11.560;2023-09-19T06:25:08;5.50;;;1.80;;
13457;SDS011;6801;53.018;11.560;2023-09-19T06:27:37;4.47;;;1.40;;
13457;SDS011;6801;53.018;11.560;2023-09-19T06:30:07;8.30;;;2.20;;
13457;SDS011;6801;53.018;11.560;2023-09-19T06:32:36;7.82;;;1.58;;
13457;SDS011;6801;53.018;11.560;2023-09-19T06:35:04;6.55;;;1.75;;
13457;SDS011;6801;53.018;11.560;2023-09-19T06:37:35;6.80;;;1.63;;
13457;SDS011;6801;53.018;11.560;2023-09-19T06:40:04;4.97;;;1.50;;
13457;SDS011;6801;53.018;11.560;2023-09-19T06:42:34;6.38;;;1.73;;
13457;SDS011;6801;53.018;11.560;2023-09-19T06:45:02;4.20;;;1.25;;
13457;SDS011;6801;53.018;11.560;2023-09-19T06:47:30;5.50;;;1.65;;
13457;SDS011;6801;53.018;11.560;2023-09-19T06:49:58;5.40;;;1.27;;
13457;SDS011;6801;53.018;11.560;2023-09-19T06:52:27;6.03;;;1.47;;
13457;SDS011;6801;53.018;11.560;2023-09-19T06:54:56;8.43;;;1.92;;
13457;SDS011;6801;53.018;11.560;2023-09-19T06:57:23;4.97;;;1.55;;
13457;SDS011;6801;53.018;11.560;2023-09-19T06:59:50;4.10;;;1.38;;
13457;SDS011;6801;53.018;11.560;2023-09-19T07:02:17;3.95;;;1.40;;
13457;SDS011;6801;53.018;11.560;2023-09-19T07:04:47;6.00;;;1.50;;
13457;SDS011;6801;53.018;11.560;2023-09-19T07:07:14;5.47;;;1.38;;
13457;SDS011;6801;53.018;11.560;2023-09-19T07:09:41;6.47;;;1.30;;
13457;SDS011;6801;53.018;11.560;2023-09-19T07:12:10;8.98;;;1.92;;
13457;SDS011;6801;53.018;11.560;2023-09-19T07:14:37;6.25;;;1.70;;
13457;SDS011;6801;53.018;11.560;2023-09-19T07:17:04;6.82;;;1.50;;
13457;SDS011;6801;53.018;11.560;2023-09-19T07:19:31;5.57;;;1.58;;
13457;SDS011;6801;53.018;11.560;2023-09-19T07:21:58;7.00;;;1.60;;
13457;SDS011;6801;53.018;11.560;2023-09-19T07:24:27;9.80;;;1.90;;
13457;SDS011;6801;53.018;11.560;2023-09-19T07:26:55;5.80;;;1.83;;
13457;SDS011;6801;53.018;11.560;2023-09-19T07:29:23;6.78;;;1.77;;
13457;SDS011;6801;53.018;11.560;2023-09-19T07:31:51;8.50;;;1.38;;
13457;SDS011;6801;53.018;11.560;2023-09-19T07:34:19;4.97;;;1.40;;
13457;SDS011;6801;53.018;11.560;2023-09-19T07:36:47;6.05;;;1.58;;
13457;SDS011;6801;53.018;11.560;2023-09-19T07:39:14;8.35;;;1.73;;
13457;SDS011;6801;53.018;11.560;2023-09-19T07:41:41;5.95;;;1.67;;
13457;SDS011;6801;53.018;11.560;2023-09-19T07:44:08;8.27;;;2.10;;
13457;SDS011;6801;53.018;11.560;2023-09-19T07:46:37;5.38;;;1.30;;
13457;SDS011;6801;53.018;11.560;2023-09-19T07:49:04;9.32;;;1.67;;
13457;SDS011;6801;53.018;11.560;2023-09-19T07:51:31;4.97;;;1.42;;
13457;SDS011;6801;53.018;11.560;2023-09-19T07:53:59;8.18;;;2.25;;
13457;SDS011;6801;53.018;11.560;2023-09-19T07:56:26;4.75;;;1.77;;
13457;SDS011;6801;53.018;11.560;2023-09-19T07:58:53;6.90;;;2.00;;
13457;SDS011;6801;53.018;11.560;2023-09-19T08:01:22;9.32;;;1.83;;
13457;SDS011;6801;53.018;11.560;2023-09-19T08:03:53;6.63;;;1.88;;
13457;SDS011;6801;53.018;11.560;2023-09-19T08:06:20;5.35;;;1.67;;
13457;SDS011;6801;53.018;11.560;2023-09-19T08:08:50;9.90;;;2.65;;
13457;SDS011;6801;53.018;11.560;2023-09-19T08:11:18;15.93;;;2.38;;
13457;SDS011;6801;53.018;11.560;2023-09-19T08:13:46;8.10;;;1.73;;
13457;SDS011;6801;53.018;11.560;2023-09-19T08:16:14;5.18;;;1.70;;
13457;SDS011;6801;53.018;11.560;2023-09-19T08:18:41;6.45;;;1.63;;
13457;SDS011;6801;53.018;11.560;2023-09-19T08:21:11;6.68;;;1.77;;
13457;SDS011;6801;53.018;11.560;2023-09-19T08:23:41;11.90;;;2.15;;
13457;SDS011;6801;53.018;11.560;2023-09-19T08:26:09;6.50;;;2.35;;
13457;SDS011;6801;53.018;11.560;2023-09-19T08:28:36;9.82;;;2.03;;
13457;SDS011;6801;53.018;11.560;2023-09-19T08:31:06;5.63;;;1.70;;
13457;SDS011;6801;53.018;11.560;2023-09-19T08:33:35;8.52;;;1.85;;
13457;SDS011;6801;53.018;11.560;2023-09-19T08:36:04;8.95;;;2.50;;
13457;SDS011;6801;53.018;11.560;2023-09-19T08:41:05;7.85;;;1.90;;
13457;SDS011;6801;53.018;11.560;2023-09-19T08:43:33;10.30;;;2.10;;
13457;SDS011;6801;53.018;11.560;2023-09-19T08:46:03;7.25;;;2.10;;
13457;SDS011;6801;53.018;11.560;2023-09-19T08:48:36;16.58;;;2.83;;
13457;SDS011;6801;53.018;11.560;2023-09-19T08:51:07;4.57;;;1.77;;
13457;SDS011;6801;53.018;11.560;2023-09-19T08:53:42;5.03;;;1.90;;
13457;SDS011;6801;53.018;11.560;2023-09-19T08:56:17;6.47;;;2.70;;
13457;SDS011;6801;53.018;11.560;2023-09-19T08:58:46;6.57;;;1.85;;
13457;SDS011;6801;53.018;11.560;2023-09-19T09:01:18;4.82;;;1.92;;
13457;SDS011;6801;53.018;11.560;2023-09-19T09:03:50;6.18;;;2.28;;
13457;SDS011;6801;53.018;11.560;2023-09-19T09:06:18;7.00;;;2.28;;
13457;SDS011;6801;53.018;11.560;2023-09-19T09:08:47;4.05;;;1.40;;
13457;SDS011;6801;53.018;11.560;2023-09-19T09:11:16;9.40;;;1.90;;
13457;SDS011;6801;53.018;11.560;2023-09-19T09:13:44;10.25;;;2.28;;
13457;SDS011;6801;53.018;11.560;2023-09-19T09:16:11;7.57;;;2.58;;
13457;SDS011;6801;53.018;11.560;2023-09-19T09:18:39;8.15;;;1.88;;
13457;SDS011;6801;53.018;11.560;2023-09-19T09:21:06;5.47;;;1.90;;
13457;SDS011;6801;53.018;11.560;2023-09-19T09:23:33;5.18;;;1.85;;
13457;SDS011;6801;53.018;11.560;2023-09-19T09:26:02;5.35;;;2.30;;
13457;SDS011;6801;53.018;11.560;2023-09-19T09:28:31;6.40;;;1.92;;
13457;SDS011;6801;53.018;11.560;2023-09-19T09:31:01;5.47;;;1.85;;
13457;SDS011;6801;53.018;11.560;2023-09-19T09:33:33;6.78;;;1.98;;
13457;SDS011;6801;53.018;11.560;2023-09-19T09:36:01;6.97;;;1.92;;
13457;SDS011;6801;53.018;11.560;2023-09-19T09:38:44;9.95;;;2.33;;
13457;SDS011;6801;53.018;11.560;2023-09-19T09:41:15;7.43;;;1.85;;
13457;SDS011;6801;53.018;11.560;2023-09-19T09:43:52;6.53;;;1.40;;
13457;SDS011;6801;53.018;11.560;2023-09-19T09:46:20;11.43;;;2.20;;
13457;SDS011;6801;53.018;11.560;2023-09-19T09:49:05;9.93;;;2.25;;
13457;SDS011;6801;53.018;11.560;2023-09-19T09:51:44;6.53;;;1.70;;
13457;SDS011;6801;53.018;11.560;2023-09-19T09:54:22;8.23;;;1.60;;
13457;SDS011;6801;53.018;11.560;2023-09-19T09:59:45;7.32;;;1.45;;
13457;SDS011;6801;53.018;11.560;2023-09-19T10:02:15;7.57;;;1.75;;
13457;SDS011;6801;53.018;11.560;2023-09-19T10:04:49;7.15;;;1.50;;
13457;SDS011;6801;53.018;11.560;2023-09-19T10:07:25;7.10;;;1.38;;
13457;SDS011;6801;53.018;11.560;2023-09-19T10:09:57;8.60;;;1.65;;
13457;SDS011;6801;53.018;11.560;2023-09-19T10:12:33;8.30;;;1.50;;
13457;SDS011;6801;53.018;11.560;2023-09-19T10:15:03;7.40;;;1.90;;
13457;SDS011;6801;53.018;11.560;2023-09-19T10:17:32;5.97;;;1.65;;
13457;SDS011;6801;53.018;11.560;2023-09-19T10:22:34;10.60;;;1.27;;
13457;SDS011;6801;53.018;11.560;2023-09-19T10:25:03;5.10;;;1.83;;
13457;SDS011;6801;53.018;11.560;2023-09-19T10:27:35;5.78;;;1.20;;
13457;SDS011;6801;53.018;11.560;2023-09-19T10:30:04;5.93;;;1.45;;
13457;SDS011;6801;53.018;11.560;2023-09-19T10:32:34;13.75;;;1.90;;
13457;SDS011;6801;53.018;11.560;2023-09-19T10:35:03;10.85;;;1.65;;
13457;SDS011;6801;53.018;11.560;2023-09-19T10:37:33;5.32;;;1.90;;
13457;SDS011;6801;53.018;11.560;2023-09-19T10:42:35;4.32;;;1.27;;
13457;SDS011;6801;53.018;11.560;2023-09-19T10:45:05;4.72;;;1.15;;
13457;SDS011;6801;53.018;11.560;2023-09-19T10:47:38;4.68;;;1.60;;
13457;SDS011;6801;53.018;11.560;2023-09-19T10:50:05;6.97;;;1.30;;
13457;SDS011;6801;53.018;11.560;2023-09-19T10:52:38;4.05;;;1.00;;
13457;SDS011;6801;53.018;11.560;2023-09-19T10:55:09;17.80;;;1.80;;
13457;SDS011;6801;53.018;11.560;2023-09-19T10:57:45;12.60;;;1.92;;
13457;SDS011;6801;53.018;11.560;2023-09-19T11:00:13;4.25;;;1.20;;
13457;SDS011;6801;53.018;11.560;2023-09-19T11:06:04;9.75;;;1.75;;
13457;SDS011;6801;53.018;11.560;2023-09-19T11:08:51;4.30;;;0.95;;
13457;SDS011;6801;53.018;11.560;2023-09-19T11:11:41;5.43;;;1.38;;
13457;SDS011;6801;53.018;11.560;2023-09-19T11:23:18;5.47;;;1.38;;
13457;SDS011;6801;53.018;11.560;2023-09-19T11:25:49;7.50;;;1.27;;
13457;SDS011;6801;53.018;11.560;2023-09-19T11:28:30;5.28;;;1.25;;
13457;SDS011;6801;53.018;11.560;2023-09-19T11:30:59;4.13;;;1.00;;
13457;SDS011;6801;53.018;11.560;2023-09-19T11:34:39;6.40;;;2.00;;
13457;SDS011;6801;53.018;11.560;2023-09-19T11:40:25;5.72;;;1.52;;
13457;SDS011;6801;53.018;11.560;2023-09-19T11:42:53;4.20;;;1.13;;
13457;SDS011;6801;53.018;11.560;2023-09-19T11:48:26;4.55;;;1.27;;
13457;SDS011;6801;53.018;11.560;2023-09-19T11:50:56;7.03;;;1.33;;
13457;SDS011;6801;53.018;11.560;2023-09-19T11:53:24;15.60;;;1.98;;
13457;SDS011;6801;53.018;11.560;2023-09-19T11:56:04;3.00;;;1.20;;
13457;SDS011;6801;53.018;11.560;2023-09-19T11:58:35;6.80;;;1.67;;
13457;SDS011;6801;53.018;11.560;2023-09-19T12:01:05;5.90;;;1.40;;
13457;SDS011;6801;53.018;11.560;2023-09-19T12:03:38;5.30;;;1.15;;
13457;SDS011;6801;53.018;11.560;2023-09-19T12:06:13;6.60;;;1.40;;
13457;SDS011;6801;53.018;11.560;2023-09-19T12:08:41;8.20;;;1.20;;
13457;SDS011;6801;53.018;11.560;2023-09-19T12:11:12;6.25;;;1.38;;
13457;SDS011;6801;53.018;11.560;2023-09-19T12:13:41;9.45;;;1.10;;
13457;SDS011;6801;53.018;11.560;2023-09-19T12:16:11;6.97;;;1.10;;
13457;SDS011;6801;53.018;11.560;2023-09-19T12:21:22;6.07;;;1.10;;
13457;SDS011;6801;53.018;11.560;2023-09-19T12:23:57;5.80;;;1.10;;
13457;SDS011;6801;53.018;11.560;2023-09-19T12:26:42;5.65;;;1.20;;
13457;SDS011;6801;53.018;11.560;2023-09-19T12:29:12;6.45;;;1.52;;
13457;SDS011;6801;53.018;11.560;2023-09-19T12:31:50;6.20;;;1.27;;
13457;SDS011;6801;53.018;11.560;2023-09-19T12:34:20;7.60;;;1.83;;
13457;SDS011;6801;53.018;11.560;2023-09-19T12:37:01;4.53;;;1.05;;
13457;SDS011;6801;53.018;11.560;2023-09-19T12:39:37;6.65;;;1.50;;
13457;SDS011;6801;53.018;11.560;2023-09-19T12:42:07;5.05;;;1.27;;
13457;SDS011;6801;53.018;11.560;2023-09-19T12:44:36;4.80;;;1.15;;
13457;SDS011;6801;53.018;11.560;2023-09-19T12:47:10;5.50;;;1.63;;
13457;SDS011;6801;53.018;11.560;2023-09-19T12:52:39;3.03;;;0.95;;
13457;SDS011;6801;53.018;11.560;2023-09-19T12:55:08;7.90;;;1.35;;
13457;SDS011;6801;53.018;11.560;2023-09-19T12:57:54;3.67;;;1.00;;
13457;SDS011;6801;53.018;11.560;2023-09-19T13:00:31;2.55;;;1.15;;
13457;SDS011;6801;53.018;11.560;2023-09-19T13:03:12;6.60;;;1.58;;
13457;SDS011;6801;53.018;11.560;2023-09-19T13:05:52;5.97;;;1.63;;
13457;SDS011;6801;53.018;11.560;2023-09-19T13:08:25;4.60;;;1.33;;
13457;SDS011;6801;53.018;11.560;2023-09-19T13:11:07;8.95;;;1.50;;
13457;SDS011;6801;53.018;11.560;2023-09-19T13:13:38;5.45;;;2.03;;
13457;SDS011;6801;53.018;11.560;2023-09-19T13:16:10;5.13;;;1.10;;
13457;SDS011;6801;53.018;11.560;2023-09-19T13:18:45;4.72;;;1.17;;
13457;SDS011;6801;53.018;11.560;2023-09-19T13:21:16;6.00;;;1.40;;
13457;SDS011;6801;53.018;11.560;2023-09-19T13:23:54;6.03;;;1.40;;
13457;SDS011;6801;53.018;11.560;2023-09-19T13:26:24;7.65;;;1.70;;
13457;SDS011;6801;53.018;11.560;2023-09-19T13:28:53;4.90;;;1.20;;
13457;SDS011;6801;53.018;11.560;2023-09-19T13:31:20;8.73;;;1.58;;
13457;SDS011;6801;53.018;11.560;2023-09-19T13:33:49;8.02;;;1.80;;
13457;SDS011;6801;53.018;11.560;2023-09-19T13:36:17;5.88;;;1.55;;
13457;SDS011;6801;53.018;11.560;2023-09-19T13:38:44;8.82;;;1.77;;
13457;SDS011;6801;53.018;11.560;2023-09-19T13:41:15;5.45;;;1.38;;
13457;SDS011;6801;53.018;11.560;2023-09-19T13:43:42;6.25;;;1.70;;
13457;SDS011;6801;53.018;11.560;2023-09-19T13:46:14;5.00;;;1.70;;
13457;SDS011;6801;53.018;11.560;2023-09-19T13:48:41;8.38;;;1.30;;
13457;SDS011;6801;53.018;11.560;2023-09-19T13:51:08;8.85;;;1.85;;
13457;SDS011;6801;53.018;11.560;2023-09-19T13:53:35;7.65;;;1.48;;
13457;SDS011;6801;53.018;11.560;2023-09-19T13:56:03;6.63;;;1.73;;
13457;SDS011;6801;53.018;11.560;2023-09-19T13:58:31;7.82;;;1.70;;
13457;SDS011;6801;53.018;11.560;2023-09-19T14:00:58;5.20;;;1.60;;
13457;SDS011;6801;53.018;11.560;2023-09-19T14:03:26;6.38;;;1.83;;
13457;SDS011;6801;53.018;11.560;2023-09-19T14:05:55;5.55;;;1.67;;
13457;SDS011;6801;53.018;11.560;2023-09-19T14:08:22;6.05;;;1.48;;
13457;SDS011;6801;53.018;11.560;2023-09-19T14:10:49;8.55;;;1.35;;
13457;SDS011;6801;53.018;11.560;2023-09-19T14:13:17;8.57;;;1.77;;
13457;SDS011;6801;53.018;11.560;2023-09-19T14:15:47;5.22;;;1.70;;
13457;SDS011;6801;53.018;11.560;2023-09-19T14:18:14;5.65;;;1.40;;
13457;SDS011;6801;53.018;11.560;2023-09-19T14:20:41;9.60;;;2.15;;
13457;SDS011;6801;53.018;11.560;2023-09-19T14:23:09;6.45;;;1.35;;
13457;SDS011;6801;53.018;11.560;2023-09-19T14:25:36;4.30;;;1.25;;
13457;SDS011;6801;53.018;11.560;2023-09-19T14:28:04;5.13;;;1.23;;
13457;SDS011;6801;53.018;11.560;2023-09-19T14:30:32;6.40;;;1.53;;
13457;SDS011;6801;53.018;11.560;2023-09-19T14:33:01;4.68;;;1.00;;
13457;SDS011;6801;53.018;11.560;2023-09-19T14:35:28;4.93;;;1.20;;
13457;SDS011;6801;53.018;11.560;2023-09-19T14:37:55;4.53;;;1.60;;
13457;SDS011;6801;53.018;11.560;2023-09-19T14:40:22;6.45;;;1.73;;
13457;SDS011;6801;53.018;11.560;2023-09-19T14:42:50;5.85;;;1.40;;
13457;SDS011;6801;53.018;11.560;2023-09-19T14:45:17;7.13;;;2.35;;
13457;SDS011;6801;53.018;11.560;2023-09-19T14:50:13;5.55;;;1.35;;
13457;SDS011;6801;53.018;11.560;2023-09-19T14:52:40;11.32;;;1.60;;
13457;SDS011;6801;53.018;11.560;2023-09-19T14:55:08;4.88;;;1.33;;
13457;SDS011;6801;53.018;11.560;2023-09-19T14:57:40;6.55;;;1.40;;
13457;SDS011;6801;53.018;11.560;2023-09-19T15:00:10;4.03;;;1.60;;
13457;SDS011;6801;53.018;11.560;2023-09-19T15:02:38;5.47;;;1.47;;
13457;SDS011;6801;53.018;11.560;2023-09-19T15:05:06;6.15;;;2.00;;
13457;SDS011;6801;53.018;11.560;2023-09-19T15:07:36;5.03;;;1.15;;
13457;SDS011;6801;53.018;11.560;2023-09-19T15:10:04;10.50;;;1.90;;
13457;SDS011;6801;53.018;11.560;2023-09-19T15:12:35;10.07;;;2.00;;
13457;SDS011;6801;53.018;11.560;2023-09-19T15:15:03;7.82;;;2.05;;
13457;SDS011;6801;53.018;11.560;2023-09-19T15:20:00;6.72;;;2.42;;
13457;SDS011;6801;53.018;11.560;2023-09-19T15:22:31;7.95;;;1.75;;
13457;SDS011;6801;53.018;11.560;2023-09-19T15:25:00;6.22;;;1.38;;
13457;SDS011;6801;53.018;11.560;2023-09-19T15:27:29;11.57;;;1.77;;
13457;SDS011;6801;53.018;11.560;2023-09-19T15:29:57;5.15;;;1.42;;
13457;SDS011;6801;53.018;11.560;2023-09-19T15:32:25;7.43;;;2.17;;
13457;SDS011;6801;53.018;11.560;2023-09-19T15:34:52;5.95;;;1.70;;
13457;SDS011;6801;53.018;11.560;2023-09-19T15:37:19;6.97;;;1.65;;
13457;SDS011;6801;53.018;11.560;2023-09-19T15:39:47;6.90;;;1.67;;
13457;SDS011;6801;53.018;11.560;2023-09-19T15:42:15;8.02;;;1.92;;
13457;SDS011;6801;53.018;11.560;2023-09-19T15:44:42;8.40;;;1.80;;
13457;SDS011;6801;53.018;11.560;2023-09-19T15:47:11;6.72;;;1.48;;
13457;SDS011;6801;53.018;11.560;2023-09-19T15:49:39;6.18;;;1.40;;
13457;SDS011;6801;53.018;11.560;2023-09-19T15:52:06;6.97;;;1.42;;
13457;SDS011;6801;53.018;11.560;2023-09-19T15:54:33;6.55;;;1.88;;
13457;SDS011;6801;53.018;11.560;2023-09-19T15:57:07;6.07;;;1.63;;
13457;SDS011;6801;53.018;11.560;2023-09-19T15:59:39;6.82;;;1.90;;
13457;SDS011;6801;53.018;11.560;2023-09-19T16:02:06;11.57;;;2.13;;